Time;durP1;ratioP1;P1;durP2;ratioP2;P2;SDS_P1;SDS_P2;PMS_P1;PMS_P2;Temp;Humidity;BMP_temperature;BMP_pressure;BME280_temperature;BME280_humidity;BME280_pressure;Samples;Min_cycle;Max_cycle;Signal;HPM_P1;HPM_P2
2022/04/03 00:01:43;;;;;;;;;;;;;;;22.95;69.06;95889.09;575497;246;68752;-70
2022/04/03 00:04:11;;;;;;;;;;;;;;;22.95;67.77;95871.12;575588;246;67181;-71
2022/04/03 00:06:39;;;;;;;;;;;;;;;22.95;68.37;95867.66;575517;246;65942;-70
2022/04/03 00:09:07;;;;;;;;;;;;;;;22.95;68.52;95865.76;575521;246;68676;-70
2022/04/03 00:11:34;;;;;;;;;;;;;;;22.95;67.99;95875.69;575493;246;69087;-71
2022/04/03 00:14:02;;;;;;;;;;;;;;;22.95;69.06;95870.34;575512;246;65373;-71
2022/04/03 00:16:32;;;;;;;;;;;;;;;22.94;69.02;95874.88;575522;246;68812;-71
2022/04/03 00:19:00;;;;;;;;;;;;;;;22.94;69.08;95880.23;575571;246;68558;-70
2022/04/03 00:21:28;;;;;;;;;;;;;;;22.95;68.94;95886.41;575475;242;63042;-70
2022/04/03 00:23:55;;;;;;;;;;;;;;;22.95;69.28;95889.88;575529;246;68772;-70
2022/04/03 00:26:23;;;;;;;;;;;;;;;22.93;69.38;95880.56;575531;246;68530;-71
2022/04/03 00:28:50;;;;;;;;;;;;;;;22.93;69.75;95878.67;575516;246;63193;-71
2022/04/03 00:31:18;;;;;;;;;;;;;;;22.91;68.49;95880.08;575558;246;66180;-71
2022/04/03 00:33:45;;;;;;;;;;;;;;;22.93;68.06;95877.88;575504;246;66527;-70
2022/04/03 00:36:13;;;;;;;;;;;;;;;22.92;68.35;95873.64;575464;246;63038;-74
2022/04/03 00:38:40;;;;;;;;;;;;;;;22.92;68.78;95868.28;575523;246;66629;-75
2022/04/03 00:41:08;;;;;;;;;;;;;;;22.90;69.46;95865.90;575550;246;66519;-75
2022/04/03 00:43:35;;;;;;;;;;;;;;;22.90;69.20;95859.76;575559;246;65314;-75
2022/04/03 00:46:05;;;;;;;;;;;;;;;22.90;68.42;95870.47;575563;246;68659;-75
2022/04/03 00:48:32;;;;;;;;;;;;;;;22.90;68.46;95873.15;575560;246;68442;-75
2022/04/03 00:51:00;;;;;;;;;;;;;;;22.90;69.70;95875.83;575561;246;63277;-75
2022/04/03 00:53:27;;;;;;;;;;;;;;;22.91;68.26;95872.04;575593;246;68158;-75
2022/04/03 00:55:55;;;;;;;;;;;;;;;22.90;68.62;95876.61;575574;246;68336;-75
2022/04/03 00:58:23;;;;;;;;;;;;;;;22.89;68.15;95885.77;575577;244;63065;-75
2022/04/03 01:00:50;;;;;;;;;;;;;;;22.89;69.46;95879.59;575543;246;66249;-75
2022/04/03 01:03:18;;;;;;;;;;;;;;;22.88;68.63;95878.80;575555;246;68357;-70
2022/04/03 01:05:45;;;;;;;;;;;;;;;22.88;69.21;95883.38;575576;246;65954;-71
2022/04/03 01:08:13;;;;;;;;;;;;;;;22.89;68.08;95884.95;575584;246;68374;-70
2022/04/03 01:10:41;;;;;;;;;;;;;;;22.89;69.53;95896.48;575568;246;66208;-71
2022/04/03 01:13:08;;;;;;;;;;;;;;;22.88;68.88;95889.52;575587;246;63108;-70
2022/04/03 01:15:35;;;;;;;;;;;;;;;22.88;68.55;95891.42;575537;246;66032;-71
2022/04/03 01:18:03;;;;;;;;;;;;;;;22.86;69.37;95891.71;575592;246;66237;-70
2022/04/03 01:20:30;;;;;;;;;;;;;;;22.87;69.47;95889.84;579014;242;63202;-71
2022/04/03 01:22:58;;;;;;;;;;;;;;;22.85;68.37;95895.50;586183;242;66522;-70
2022/04/03 01:25:26;;;;;;;;;;;;;;;22.86;68.70;95891.71;586140;242;68929;-70
2022/04/03 01:27:53;;;;;;;;;;;;;;;22.85;69.10;95890.14;586157;242;65467;-75
2022/04/03 01:30:21;;;;;;;;;;;;;;;22.85;68.43;95886.69;586137;242;68697;-75
2022/04/03 01:32:48;;;;;;;;;;;;;;;22.85;69.46;95884.00;586146;242;68540;-75
2022/04/03 01:35:15;;;;;;;;;;;;;;;22.85;69.72;95878.64;586193;242;65312;-75
2022/04/03 01:37:43;;;;;;;;;;;;;;;22.83;69.76;95882.44;586103;242;68707;-75
2022/04/03 01:40:12;;;;;;;;;;;;;;;22.83;69.36;95885.11;586152;242;66088;-75
2022/04/03 01:42:39;;;;;;;;;;;;;;;22.83;68.98;95895.83;586150;242;65420;-74
2022/04/03 01:45:07;;;;;;;;;;;;;;;22.83;69.13;95889.66;586148;242;68422;-75
2022/04/03 01:47:35;;;;;;;;;;;;;;;22.82;66.79;95902.27;586199;242;68537;-74
2022/04/03 01:50:03;;;;;;;;;;;;;;;22.84;68.68;95893.94;586110;242;65401;-75
2022/04/03 01:52:30;;;;;;;;;;;;;;;22.83;68.57;95898.51;586100;242;66197;-74
2022/04/03 01:54:59;;;;;;;;;;;;;;;22.83;69.00;95895.83;586154;242;66485;-75
2022/04/03 01:57:27;;;;;;;;;;;;;;;22.82;68.35;95891.55;586142;242;62654;-73
2022/04/03 01:59:55;;;;;;;;;;;;;;;22.81;69.10;95884.63;586179;242;68942;-74
2022/04/03 02:02:22;;;;;;;;;;;;;;;22.81;69.16;95889.98;586148;242;68532;-73
2022/04/03 02:04:50;;;;;;;;;;;;;;;22.81;68.92;95879.27;586091;242;63942;-74
2022/04/03 02:07:17;;;;;;;;;;;;;;;22.81;69.11;95892.66;586166;242;68848;-69
2022/04/03 02:09:45;;;;;;;;;;;;;;;22.81;68.74;95897.23;586133;242;68562;-69
2022/04/03 02:12:13;;;;;;;;;;;;;;;22.79;69.00;95894.85;586182;242;65148;-76
2022/04/03 02:14:40;;;;;;;;;;;;;;;22.78;68.74;95895.96;586174;242;66503;-74
2022/04/03 02:17:08;;;;;;;;;;;;;;;22.79;68.65;95888.71;586083;242;66491;-73
2022/04/03 02:19:35;;;;;;;;;;;;;;;22.78;68.36;95882.57;586155;242;63025;-74
2022/04/03 02:22:03;;;;;;;;;;;;;;;22.78;69.87;95882.57;575861;242;66572;-74
2022/04/03 02:24:30;;;;;;;;;;;;;;;22.78;68.44;95879.89;575516;246;66512;-73
2022/04/03 02:26:58;;;;;;;;;;;;;;;22.78;68.37;95889.80;575586;246;63096;-76
2022/04/03 02:29:25;;;;;;;;;;;;;;;22.77;68.34;95894.36;575546;246;66504;-74
2022/04/03 02:31:53;;;;;;;;;;;;;;;22.78;68.42;95913.90;575492;246;68358;-75
2022/04/03 02:34:20;;;;;;;;;;;;;;;22.76;68.45;95908.87;575527;246;65478;-71
2022/04/03 02:36:48;;;;;;;;;;;;;;;22.78;68.50;95912.03;575530;246;68715;-71
2022/04/03 02:39:15;;;;;;;;;;;;;;;22.78;69.82;95900.50;575544;246;68889;-71
2022/04/03 02:41:45;;;;;;;;;;;;;;;22.77;69.72;95898.94;575536;246;65548;-71
2022/04/03 02:44:13;;;;;;;;;;;;;;;22.75;68.40;95891.23;575503;246;68654;-69
2022/04/03 02:46:41;;;;;;;;;;;;;;;22.75;69.39;95888.55;575520;246;66599;-69
2022/04/03 02:49:08;;;;;;;;;;;;;;;22.75;68.74;95885.05;575530;246;63045;-69
2022/04/03 02:51:36;;;;;;;;;;;;;;;22.75;69.13;95880.52;575565;246;67467;-69
2022/04/03 02:54:04;;;;;;;;;;;;;;;22.75;68.90;95888.55;575529;246;66596;-69
2022/04/03 02:56:32;;;;;;;;;;;;;;;22.74;69.55;95892.31;575571;246;65532;-69
2022/04/03 02:58:59;;;;;;;;;;;;;;;22.75;68.39;95882.38;575499;246;68399;-69
2022/04/03 03:01:26;;;;;;;;;;;;;;;22.74;68.90;95873.56;575519;244;68472;-69
2022/04/03 03:03:55;;;;;;;;;;;;;;;22.74;68.65;95884.27;575558;246;65439;-69
2022/04/03 03:06:23;;;;;;;;;;;;;;;22.74;68.36;95889.62;575548;246;66832;-69
2022/04/03 03:08:50;;;;;;;;;;;;;;;22.74;68.20;95897.66;575514;246;68621;-69
2022/04/03 03:11:18;;;;;;;;;;;;;;;22.72;69.06;95893.71;575481;246;65455;-69
2022/04/03 03:13:45;;;;;;;;;;;;;;;22.73;70.24;95893.42;575553;246;68666;-69
2022/04/03 03:16:13;;;;;;;;;;;;;;;22.73;69.06;95888.06;575516;246;68640;-69
2022/04/03 03:18:40;;;;;;;;;;;;;;;22.72;69.38;95885.68;575579;244;65319;-74
2022/04/03 03:21:08;;;;;;;;;;;;;;;22.73;68.65;95898.77;581756;242;68722;-74
2022/04/03 03:23:35;;;;;;;;;;;;;;;22.71;68.28;95887.57;586141;242;68582;-74
2022/04/03 03:26:03;;;;;;;;;;;;;;;22.72;69.76;95893.71;586078;242;65430;-74
2022/04/03 03:28:31;;;;;;;;;;;;;;;22.72;68.08;95885.68;586107;242;66133;-74
2022/04/03 03:30:59;;;;;;;;;;;;;;;22.71;68.78;95879.54;586179;242;68692;-74
2022/04/03 03:33:26;;;;;;;;;;;;;;;22.71;68.88;95879.54;586103;242;65408;-75
2022/04/03 03:35:55;;;;;;;;;;;;;;;22.71;69.31;95884.89;586122;242;68685;-74
2022/04/03 03:38:22;;;;;;;;;;;;;;;22.72;69.39;95885.68;586099;242;68566;-74
2022/04/03 03:40:50;;;;;;;;;;;;;;;22.69;69.02;95881.73;586104;242;65444;-74
2022/04/03 03:43:17;;;;;;;;;;;;;;;22.70;68.87;95882.52;586189;242;66647;-74
2022/04/03 03:45:45;;;;;;;;;;;;;;;22.69;68.12;95876.38;586146;242;68396;-74
2022/04/03 03:48:12;;;;;;;;;;;;;;;22.70;68.64;95877.97;586136;242;65628;-74
2022/04/03 03:50:40;;;;;;;;;;;;;;;22.68;69.22;95874.80;586115;242;68730;-74
2022/04/03 03:53:07;;;;;;;;;;;;;;;22.68;69.83;95880.16;586064;242;69144;-74
2022/04/03 03:55:36;;;;;;;;;;;;;;;22.68;69.05;95880.16;586172;242;62684;-75
2022/04/03 03:58:04;;;;;;;;;;;;;;;22.68;68.99;95880.16;586136;242;66551;-74
2022/04/03 04:00:32;;;;;;;;;;;;;;;22.68;68.99;95884.73;586072;242;68742;-75
2022/04/03 04:02:59;;;;;;;;;;;;;;;22.67;67.73;95883.13;586103;242;65643;-75
2022/04/03 04:05:27;;;;;;;;;;;;;;;22.66;68.47;95882.34;586150;242;68680;-74
2022/04/03 04:07:54;;;;;;;;;;;;;;;22.67;68.86;95883.13;586171;242;68566;-74
2022/04/03 04:10:22;;;;;;;;;;;;;;;22.66;69.08;95895.73;586133;242;65444;-74
2022/04/03 04:12:50;;;;;;;;;;;;;;;22.66;69.07;95892.28;586119;242;68343;-75
2022/04/03 04:15:17;;;;;;;;;;;;;;;22.65;69.47;95891.49;586150;242;66543;-74
2022/04/03 04:17:46;;;;;;;;;;;;;;;22.64;69.11;95895.25;586130;242;63082;-75
2022/04/03 04:20:15;;;;;;;;;;;;;;;22.66;68.63;95905.66;586163;242;68883;-74
2022/04/03 04:22:43;;;;;;;;;;;;;;;22.65;69.07;95912.13;586146;242;66500;-74
2022/04/03 04:25:14;;;;;;;;;;;;;;;22.66;68.03;95913.70;586138;242;63208;-75
2022/04/03 04:27:42;;;;;;;;;;;;;;;22.63;69.37;95912.42;586151;242;69826;-75
2022/04/03 04:30:10;;;;;;;;;;;;;;;22.64;68.18;95910.53;586138;242;68777;-70
2022/04/03 04:32:37;;;;;;;;;;;;;;;22.64;68.71;95908.64;586161;242;65544;-70
2022/04/03 04:35:05;;;;;;;;;;;;;;;22.64;67.62;95905.17;586166;242;68655;-70
2022/04/03 04:37:34;;;;;;;;;;;;;;;22.63;68.39;95904.39;586125;242;68645;-69
2022/04/03 04:40:02;;;;;;;;;;;;;;;22.64;69.04;95905.96;586128;242;63007;-69
2022/04/03 04:42:29;;;;;;;;;;;;;;;22.63;69.15;95907.07;586134;242;68716;-69
2022/04/03 04:44:58;;;;;;;;;;;;;;;22.64;69.67;95922.03;586162;242;68627;-69
2022/04/03 04:47:26;;;;;;;;;;;;;;;22.63;68.75;95922.35;586156;242;65189;-69
2022/04/03 04:49:53;;;;;;;;;;;;;;;22.63;70.31;95915.10;586157;242;68725;-69
2022/04/03 04:52:21;;;;;;;;;;;;;;;22.63;68.65;95917.00;586110;242;68632;-69
2022/04/03 04:54:48;;;;;;;;;;;;;;;22.63;68.75;95930.39;586165;242;65120;-69
2022/04/03 04:57:16;;;;;;;;;;;;;;;22.61;68.87;95925.33;586196;242;68717;-69
2022/04/03 04:59:43;;;;;;;;;;;;;;;22.60;69.42;95921.86;586179;242;68108;-69
2022/04/03 05:02:11;;;;;;;;;;;;;;;22.61;69.78;95930.68;586192;242;65392;-69
2022/04/03 05:04:39;;;;;;;;;;;;;;;22.60;69.87;95923.75;586190;242;66370;-69
2022/04/03 05:07:08;;;;;;;;;;;;;;;22.61;68.51;95933.36;586127;242;66509;-69
2022/04/03 05:09:35;;;;;;;;;;;;;;;22.59;67.96;95931.00;586166;242;63187;-69
2022/04/03 05:12:03;;;;;;;;;;;;;;;22.59;69.50;95935.58;586222;242;68240;-69
2022/04/03 05:14:31;;;;;;;;;;;;;;;22.59;68.49;95927.54;586106;242;66641;-70
2022/04/03 05:16:59;;;;;;;;;;;;;;;22.59;69.03;95940.93;586161;242;63062;-69
2022/04/03 05:19:27;;;;;;;;;;;;;;;22.59;69.51;95933.68;586067;242;68419;-69
2022/04/03 05:21:54;;;;;;;;;;;;;;;22.59;67.27;95948.96;585538;242;66515;-70
2022/04/03 05:24:22;;;;;;;;;;;;;;;22.57;66.76;95943.11;585895;242;63077;-69
2022/04/03 05:26:50;;;;;;;;;;;;;;;22.57;69.30;95949.25;586094;242;67126;-69
2022/04/03 05:29:17;;;;;;;;;;;;;;;22.57;68.02;95964.53;586147;242;68591;-70
2022/04/03 05:31:45;;;;;;;;;;;;;;;22.56;68.57;95954.91;586057;242;65144;-69
2022/04/03 05:34:12;;;;;;;;;;;;;;;22.56;68.24;95965.62;586060;242;68921;-69
2022/04/03 05:36:40;;;;;;;;;;;;;;;22.56;68.99;95974.46;586146;242;68553;-69
2022/04/03 05:39:08;;;;;;;;;;;;;;;22.57;68.45;95983.28;586110;242;63312;-74
2022/04/03 05:41:36;;;;;;;;;;;;;;;22.56;68.65;95981.68;586126;242;68927;-75
2022/04/03 05:44:03;;;;;;;;;;;;;;;22.55;68.15;95972.86;586131;242;68574;-74
2022/04/03 05:46:31;;;;;;;;;;;;;;;22.55;67.64;95982.78;586051;242;65429;-75
2022/04/03 05:48:59;;;;;;;;;;;;;;;22.53;67.31;95969.69;586208;242;66476;-74
2022/04/03 05:51:27;;;;;;;;;;;;;;;22.55;68.84;95977.44;586187;242;68649;-75
2022/04/03 05:53:54;;;;;;;;;;;;;;;22.54;68.73;95979.33;585887;242;65392;-75
2022/04/03 05:56:27;;;;;;;;;;;;;;;22.53;69.48;95976.94;585814;242;66144;-75
2022/04/03 05:58:51;;;;;;;;;;;;;;;22.53;68.83;95974.27;585471;242;66528;-75
2022/04/03 06:01:19;;;;;;;;;;;;;;;22.52;68.49;95970.02;585476;242;63097;-75
2022/04/03 06:03:46;;;;;;;;;;;;;;;22.52;68.75;95980.73;585581;242;66611;-75
2022/04/03 06:06:14;;;;;;;;;;;;;;;22.52;69.47;95983.41;585767;242;66606;-75
2022/04/03 06:08:41;;;;;;;;;;;;;;;22.51;68.66;95979.16;585005;242;63934;-75
2022/04/03 06:11:09;;;;;;;;;;;;;;;22.51;69.07;95984.51;585340;242;66533;-75
2022/04/03 06:13:37;;;;;;;;;;;;;;;22.51;68.75;95981.83;586057;242;66245;-75
2022/04/03 06:16:04;;;;;;;;;;;;;;;22.51;67.16;95998.68;586162;242;63060;-76
2022/04/03 06:18:32;;;;;;;;;;;;;;;22.52;67.99;95988.76;586120;242;68738;-75
2022/04/03 06:20:59;;;;;;;;;;;;;;;22.52;69.44;95986.86;580382;242;68994;-75
2022/04/03 06:23:27;;;;;;;;;;;;;;;22.53;68.87;95984.97;575525;246;65291;-75
2022/04/03 06:25:55;;;;;;;;;;;;;;;22.54;69.03;95991.92;575531;246;68668;-75
2022/04/03 06:28:24;;;;;;;;;;;;;;;22.53;68.70;95987.65;575559;246;66425;-75
2022/04/03 06:30:57;;;;;;;;;;;;;;;22.54;69.44;95983.89;575415;246;65399;-74
2022/04/03 06:33:21;;;;;;;;;;;;;;;22.55;68.28;95977.44;575209;246;68863;-74
2022/04/03 06:35:49;;;;;;;;;;;;;;;22.56;69.12;95979.82;575547;246;68602;-75
2022/04/03 06:38:17;;;;;;;;;;;;;;;22.57;68.04;95986.74;575442;246;63014;-74
2022/04/03 06:40:52;;;;;;;;;;;;;;;22.59;68.03;95983.77;575521;246;68481;-74
2022/04/03 06:43:23;;;;;;;;;;;;;;;22.59;67.58;95989.91;575521;246;68647;-74
2022/04/03 06:45:51;;;;;;;;;;;;;;;22.59;67.83;95995.27;575318;246;65650;-75
2022/04/03 06:48:19;;;;;;;;;;;;;;;22.60;67.75;95998.73;575507;246;69136;-75
2022/04/03 06:50:46;;;;;;;;;;;;;;;22.62;66.98;96015.30;575547;246;68606;-75
2022/04/03 06:53:14;;;;;;;;;;;;;;;22.61;67.56;96003.77;575526;246;63032;-75
2022/04/03 06:55:42;;;;;;;;;;;;;;;22.62;67.37;96009.94;575540;246;68713;-75
2022/04/03 06:58:09;;;;;;;;;;;;;;;22.64;67.41;96023.00;575529;246;68795;-76
2022/04/03 07:00:38;;;;;;;;;;;;;;;22.63;66.76;96022.22;575523;246;65085;-76
2022/04/03 07:03:05;;;;;;;;;;;;;;;22.65;67.31;96021.92;575530;246;68680;-75
2022/04/03 07:05:33;;;;;;;;;;;;;;;22.65;66.37;96036.10;575537;246;68664;-75
2022/04/03 07:08:00;;;;;;;;;;;;;;;22.66;67.58;96034.99;575603;246;65381;-75
2022/04/03 07:10:28;;;;;;;;;;;;;;;22.66;68.51;96037.67;575507;246;68490;-75
2022/04/03 07:12:56;;;;;;;;;;;;;;;22.66;68.11;96043.03;575494;246;66547;-75
2022/04/03 07:15:23;;;;;;;;;;;;;;;22.67;69.05;96049.98;575518;246;65145;-76
2022/04/03 07:17:51;;;;;;;;;;;;;;;22.68;67.71;96048.88;575537;246;66470;-75
2022/04/03 07:20:18;;;;;;;;;;;;;;;22.69;68.51;96046.98;578150;242;66582;-76
2022/04/03 07:22:46;;;;;;;;;;;;;;;22.70;69.53;96062.77;585999;242;65409;-76
2022/04/03 07:25:16;;;;;;;;;;;;;;;22.70;70.07;96065.44;586195;242;48522;-76
2022/04/03 07:27:43;;;;;;;;;;;;;;;22.72;68.60;96070.48;586129;242;68530;-75
2022/04/03 07:30:12;;;;;;;;;;;;;;;22.73;67.08;96069.40;585603;242;65264;-76
2022/04/03 07:32:39;;;;;;;;;;;;;;;22.74;68.00;96077.12;586145;242;68839;-76
2022/04/03 07:35:08;;;;;;;;;;;;;;;22.76;67.63;96074.93;586095;242;68869;-76
2022/04/03 07:37:35;;;;;;;;;;;;;;;22.78;67.12;96070.07;586116;242;65647;-76
2022/04/03 07:40:06;;;;;;;;;;;;;;;22.79;66.73;96068.96;586107;242;68669;-76
2022/04/03 07:42:33;;;;;;;;;;;;;;;22.80;66.55;96073.21;586098;242;66495;-76
2022/04/03 07:45:01;;;;;;;;;;;;;;;22.84;66.36;96081.45;586116;242;65192;-76
2022/04/03 07:47:29;;;;;;;;;;;;;;;22.84;65.86;96076.09;586141;242;68677;-76
2022/04/03 07:49:56;;;;;;;;;;;;;;;22.86;65.93;96078.45;586100;242;66535;-76
2022/04/03 07:52:24;;;;;;;;;;;;;;;22.88;66.00;96092.34;586154;242;65428;-75
2022/04/03 07:54:51;;;;;;;;;;;;;;;22.89;66.37;96094.72;586101;242;68433;-75
2022/04/03 07:57:19;;;;;;;;;;;;;;;22.91;65.73;96094.40;586153;242;66511;-76
2022/04/03 07:59:47;;;;;;;;;;;;;;;22.92;65.35;96107.50;586195;242;65194;-76
2022/04/03 08:02:15;;;;;;;;;;;;;;;22.94;65.73;96096.47;586116;242;69084;-70
2022/04/03 08:04:42;;;;;;;;;;;;;;;22.95;65.13;96117.61;586134;242;68539;-69
2022/04/03 08:07:09;;;;;;;;;;;;;;;22.95;65.63;96104.22;586102;242;65378;-70
2022/04/03 08:09:37;;;;;;;;;;;;;;;22.97;65.18;96128.85;586121;242;68685;-70
2022/04/03 08:12:05;;;;;;;;;;;;;;;22.99;65.03;96131.21;586160;242;66505;-70
2022/04/03 08:14:33;;;;;;;;;;;;;;;22.99;64.91;96121.27;586168;242;65462;-70
2022/04/03 08:17:01;;;;;;;;;;;;;;;23.00;65.44;96127.45;586144;242;66306;-69
2022/04/03 08:19:28;;;;;;;;;;;;;;;23.02;65.43;96141.31;586111;242;66499;-70
2022/04/03 08:21:56;;;;;;;;;;;;;;;23.03;65.41;96138.34;586093;242;65413;-70
2022/04/03 08:24:24;;;;;;;;;;;;;;;23.04;64.67;96142.59;586091;242;66403;-70
2022/04/03 08:26:51;;;;;;;;;;;;;;;23.06;65.62;96138.84;586184;242;66501;-70
2022/04/03 08:29:18;;;;;;;;;;;;;;;23.07;65.10;96143.87;586149;242;63318;-77
2022/04/03 08:31:46;;;;;;;;;;;;;;;23.08;65.08;96150.84;586130;242;68626;-76
2022/04/03 08:34:13;;;;;;;;;;;;;;;23.10;64.71;96147.84;586101;242;68590;-76
2022/04/03 08:36:41;;;;;;;;;;;;;;;23.11;65.06;96150.22;585763;242;65409;-76
2022/04/03 08:39:09;;;;;;;;;;;;;;;23.12;64.11;96151.80;586148;242;66692;-76
2022/04/03 08:41:36;;;;;;;;;;;;;;;23.14;65.44;96151.50;586195;242;68367;-76
2022/04/03 08:44:07;;;;;;;;;;;;;;;23.14;65.25;96156.86;586147;242;65157;-77
2022/04/03 08:46:34;;;;;;;;;;;;;;;23.16;64.72;96158.14;586119;242;72923;-76
2022/04/03 08:49:03;;;;;;;;;;;;;;;23.17;65.19;96154.36;586109;242;68969;-77
2022/04/03 08:51:32;;;;;;;;;;;;;;;23.18;64.80;96158.61;586184;242;63072;-77
2022/04/03 08:53:59;;;;;;;;;;;;;;;23.20;65.02;96164.46;585794;242;68880;-77
2022/04/03 08:56:27;;;;;;;;;;;;;;;23.21;64.24;96160.67;585661;242;68600;-77
2022/04/03 08:58:54;;;;;;;;;;;;;;;23.24;64.22;96176.17;585506;242;65279;-77
2022/04/03 09:01:22;;;;;;;;;;;;;;;23.25;64.47;96176.95;585423;242;66478;-79
2022/04/03 09:03:50;;;;;;;;;;;;;;;23.26;64.04;96171.27;585624;242;68439;-76
2022/04/03 09:06:18;;;;;;;;;;;;;;;23.29;63.87;96177.13;585493;242;65540;-78
2022/04/03 09:08:47;;;;;;;;;;;;;;;23.30;63.51;96178.70;585599;242;68187;-77
2022/04/03 09:11:15;;;;;;;;;;;;;;;23.31;64.10;96164.22;585710;242;66631;-77
2022/04/03 09:13:43;;;;;;;;;;;;;;;23.33;63.66;96167.39;585559;242;66411;-77
2022/04/03 09:16:11;;;;;;;;;;;;;;;23.34;63.63;96175.11;585428;242;68823;-77
2022/04/03 09:18:44;;;;;;;;;;;;;;;23.37;63.35;96160.30;585679;242;68278;-77
2022/04/03 09:21:22;;;;;;;;;;;;;;;23.37;63.42;96162.98;580803;242;65387;-77
2022/04/03 09:24:13;;;;;;;;;;;;;;;23.39;63.05;96164.27;578405;245;68479;-78
2022/04/03 09:26:40;;;;;;;;;;;;;;;23.39;62.91;96161.58;578346;245;68591;-77
2022/04/03 09:29:14;;;;;;;;;;;;;;;23.43;62.76;96167.11;578425;245;65089;-77
2022/04/03 09:31:43;;;;;;;;;;;;;;;23.44;62.93;96164.14;578392;245;68727;-75
2022/04/03 09:34:17;;;;;;;;;;;;;;;23.45;62.61;96149.63;578499;243;66492;-75
2022/04/03 09:36:56;;;;;;;;;;;;;;;23.46;62.90;96153.09;578405;245;65094;-77
2022/04/03 09:39:25;;;;;;;;;;;;;;;23.47;62.39;96152.80;578171;245;68710;-76
2022/04/03 09:41:57;;;;;;;;;;;;;;;23.49;62.37;96147.92;578442;245;68771;-76
2022/04/03 09:44:26;;;;;;;;;;;;;;;23.52;62.25;96151.87;578467;245;65468;-70
2022/04/03 09:47:15;;;;;;;;;;;;;;;23.54;62.38;96157.70;578476;245;66448;-70
2022/04/03 09:49:44;;;;;;;;;;;;;;;23.56;62.08;96168.14;578421;245;68678;-69
2022/04/03 09:52:11;;;;;;;;;;;;;;;23.56;62.42;96168.92;578501;245;65022;-70
2022/04/03 09:54:42;;;;;;;;;;;;;;;23.60;61.80;96172.59;578421;245;69590;-70
2022/04/03 09:57:19;;;;;;;;;;;;;;;23.60;61.72;96167.22;578476;245;66255;-71
2022/04/03 09:59:51;;;;;;;;;;;;;;;23.64;61.86;96175.44;578358;243;63241;-71
2022/04/03 10:02:19;;;;;;;;;;;;;;;23.65;61.75;96175.14;578311;245;68870;-71
2022/04/03 10:04:47;;;;;;;;;;;;;;;23.66;61.40;96184.77;578486;245;67019;-71
2022/04/03 10:07:17;;;;;;;;;;;;;;;23.69;61.68;96188.72;578406;245;46519;-75
2022/04/03 10:09:46;;;;;;;;;;;;;;;23.70;61.29;96184.92;578447;245;68652;-75
2022/04/03 10:12:18;;;;;;;;;;;;;;;23.73;61.40;96188.92;578421;245;68831;-75
2022/04/03 10:14:46;;;;;;;;;;;;;;;23.74;60.95;96187.84;578468;245;63274;-76
2022/04/03 10:17:14;;;;;;;;;;;;;;;23.76;61.24;96180.25;578482;245;68749;-75
2022/04/03 10:19:41;;;;;;;;;;;;;;;23.78;61.37;96186.11;578457;245;68525;-75
2022/04/03 10:22:10;;;;;;;;;;;;;;;23.79;61.10;96182.31;578488;245;65455;-75
2022/04/03 10:24:39;;;;;;;;;;;;;;;23.81;60.89;96188.16;578148;245;68429;-75
2022/04/03 10:27:08;;;;;;;;;;;;;;;23.82;61.16;96195.14;578469;245;66488;-76
2022/04/03 10:29:38;;;;;;;;;;;;;;;23.83;60.97;96204.75;578391;243;63157;-75
2022/04/03 10:32:06;;;;;;;;;;;;;;;23.85;60.96;96211.40;578428;245;68955;-76
2022/04/03 10:34:38;;;;;;;;;;;;;;;23.86;60.81;96214.87;578461;245;68562;-76
2022/04/03 10:37:07;;;;;;;;;;;;;;;23.86;60.92;96217.55;577120;243;63097;-76
2022/04/03 10:39:36;;;;;;;;;;;;;;;23.87;60.74;96219.94;577756;245;66555;-76
2022/04/03 10:42:06;;;;;;;;;;;;;;;23.90;60.73;96223.90;578467;245;66533;-76
2022/04/03 10:44:33;;;;;;;;;;;;;;;23.93;60.57;96225.96;577845;245;63045;-76
2022/04/03 10:47:05;;;;;;;;;;;;;;;23.92;60.38;96214.41;578499;245;66580;-76
2022/04/03 10:49:51;;;;;;;;;;;;;;;23.93;60.45;96218.70;578446;245;68746;-76
2022/04/03 10:52:33;;;;;;;;;;;;;;;23.95;60.34;96214.91;578457;245;65602;-77
2022/04/03 10:55:02;;;;;;;;;;;;;;;23.94;60.56;96214.12;577620;245;68842;-71
2022/04/03 10:57:38;;;;;;;;;;;;;;;23.97;60.91;96212.70;578337;245;68631;-71
2022/04/03 11:00:17;;;;;;;;;;;;;;;23.96;60.59;96209.23;574036;245;62968;-71
2022/04/03 11:02:55;;;;;;;;;;;;;;;23.97;60.28;96221.55;577515;243;66532;-71
2022/04/03 11:05:24;;;;;;;;;;;;;;;23.98;60.41;96217.78;573678;244;67318;-70
2022/04/03 11:07:53;;;;;;;;;;;;;;;24.01;60.31;96221.70;571281;248;63215;-70
2022/04/03 11:10:40;;;;;;;;;;;;;;;24.02;60.56;96221.41;570396;248;69681;-70
2022/04/03 11:13:09;;;;;;;;;;;;;;;24.03;60.80;96227.56;571439;248;68500;-70
2022/04/03 11:15:55;;;;;;;;;;;;;;;24.04;60.44;96229.17;571236;248;65448;-75
2022/04/03 11:18:27;;;;;;;;;;;;;;;24.05;60.48;96230.73;571428;248;68793;-75
2022/04/03 11:21:14;;;;;;;;;;;;;;;24.06;60.50;96238.50;571409;248;68913;-71
2022/04/03 11:23:47;;;;;;;;;;;;;;;24.07;60.63;96247.33;571564;248;65335;-72
2022/04/03 11:26:15;;;;;;;;;;;;;;;24.07;60.57;96253.48;569456;248;68727;-72
2022/04/03 11:28:43;;;;;;;;;;;;;;;24.08;60.45;96252.38;571536;248;66719;-69
2022/04/03 11:31:11;;;;;;;;;;;;;;;24.10;60.51;96274.34;571555;248;65477;-70
2022/04/03 11:33:39;;;;;;;;;;;;;;;24.11;60.85;96273.23;571584;248;68956;-72
2022/04/03 11:36:08;;;;;;;;;;;;;;;24.12;60.67;96263.31;571524;248;68852;-72
2022/04/03 11:38:37;;;;;;;;;;;;;;;24.11;60.61;96251.75;571484;248;65196;-70
2022/04/03 11:41:08;;;;;;;;;;;;;;;24.14;60.69;96251.16;571576;248;68429;-70
2022/04/03 11:43:36;;;;;;;;;;;;;;;24.15;60.49;96252.73;571524;248;68584;-71
2022/04/03 11:46:05;;;;;;;;;;;;;;;24.18;60.62;96255.91;571516;248;65379;-70
2022/04/03 11:48:33;;;;;;;;;;;;;;;24.18;60.39;96248.64;571569;248;68959;-71
2022/04/03 11:51:05;;;;;;;;;;;;;;;24.19;60.53;96244.05;571545;248;66542;-71
2022/04/03 11:53:33;;;;;;;;;;;;;;;24.20;60.49;96243.77;571491;248;65208;-71
2022/04/03 11:56:14;;;;;;;;;;;;;;;24.21;60.70;96234.59;571556;248;69636;-71
2022/04/03 11:58:46;;;;;;;;;;;;;;;24.25;60.43;96240.12;571525;248;66512;-70
2022/04/03 12:01:13;;;;;;;;;;;;;;;24.27;60.53;96235.24;571544;248;65442;-71
2022/04/03 12:03:41;;;;;;;;;;;;;;;24.27;60.72;96254.04;571626;248;68982;-70
2022/04/03 12:06:18;;;;;;;;;;;;;;;24.28;60.46;96255.61;571530;248;68555;-70
2022/04/03 12:08:47;;;;;;;;;;;;;;;24.29;60.53;96262.58;571513;248;65212;-69
2022/04/03 12:11:15;;;;;;;;;;;;;;;24.30;60.38;96264.16;571522;248;68750;-69
2022/04/03 12:13:43;;;;;;;;;;;;;;;24.32;60.39;96265.42;571530;246;68726;-70
2022/04/03 12:16:12;;;;;;;;;;;;;;;24.33;60.46;96272.38;571588;248;65156;-70
2022/04/03 12:18:49;;;;;;;;;;;;;;;24.34;60.48;96273.19;571473;248;66494;-70
2022/04/03 12:21:17;;;;;;;;;;;;;;;24.35;60.27;96288.19;571471;248;68693;-70
2022/04/03 12:24:04;;;;;;;;;;;;;;;24.35;60.64;96274.77;564916;248;67035;-70
2022/04/03 12:26:32;;;;;;;;;;;;;;;24.36;60.32;96265.59;571573;248;68679;-70
2022/04/03 12:29:01;;;;;;;;;;;;;;;24.37;60.30;96261.82;571553;248;66530;-70
2022/04/03 12:31:29;;;;;;;;;;;;;;;24.37;60.64;96264.51;571595;248;65410;-70
2022/04/03 12:34:13;;;;;;;;;;;;;;;24.37;60.55;96262.61;571523;248;68886;-70
2022/04/03 12:36:44;;;;;;;;;;;;;;;24.38;60.46;96261.49;571496;248;66896;-70
2022/04/03 12:39:30;;;;;;;;;;;;;;;24.40;60.39;96268.47;571580;248;63356;-71
2022/04/03 12:41:59;;;;;;;;;;;;;;;24.40;60.52;96269.25;571570;246;68733;-70
2022/04/03 12:44:26;;;;;;;;;;;;;;;24.43;60.40;96262.47;571128;248;66294;-70
2022/04/03 12:46:54;;;;;;;;;;;;;;;24.43;60.31;96267.84;571560;246;63928;-70
2022/04/03 12:49:21;;;;;;;;;;;;;;;24.44;60.28;96274.81;571639;248;68703;-70
2022/04/03 12:51:49;;;;;;;;;;;;;;;24.45;60.31;96277.20;571536;248;68540;-70
2022/04/03 12:54:18;;;;;;;;;;;;;;;24.46;60.26;96272.62;571603;248;63959;-70
2022/04/03 12:59:38;;;;;;;;;;;;;;;24.46;60.21;96280.67;571556;246;66570;-70